Time;durP1;ratioP1;P1;durP2;ratioP2;P2;SDS_P1;SDS_P2;PMS_P1;PMS_P2;Temp;Humidity;BMP_temperature;BMP_pressure;BME280_temperature;BME280_humidity;BME280_pressure;Samples;Min_cycle;Max_cycle;Signal;HPM_P1;HPM_P2
2021/08/08 00:01:00;;;;;;;0.98;0.30;;;16.80;85.60;;;;;;5035057;28;20530;-76
2021/08/08 00:03:30;;;;;;;2.35;0.60;;;16.70;85.80;;;;;;5038257;28;20139;-76
2021/08/08 00:05:57;;;;;;;4.03;0.60;;;16.70;86.10;;;;;;5044346;28;20087;-76
2021/08/08 00:08:27;;;;;;;1.20;0.47;;;16.70;86.50;;;;;;5058463;28;20450;-77
2021/08/08 00:10:54;;;;;;;1.15;0.60;;;16.70;86.60;;;;;;5082810;28;20052;-76
2021/08/08 00:13:21;;;;;;;1.83;0.65;;;16.80;86.90;;;;;;5099438;28;20108;-76
2021/08/08 00:15:49;;;;;;;1.83;0.68;;;16.70;87.00;;;;;;5068300;28;20042;-76
2021/08/08 00:18:16;;;;;;;1.15;0.55;;;16.70;87.20;;;;;;5083520;28;20075;-76
2021/08/08 00:20:46;;;;;;;2.20;0.50;;;16.70;87.40;;;;;;5090169;28;20032;-76
2021/08/08 00:23:14;;;;;;;2.35;0.80;;;16.80;87.60;;;;;;5074838;28;20048;-77
2021/08/08 00:25:41;;;;;;;2.20;0.80;;;16.70;88.10;;;;;;5107393;28;20115;-77
2021/08/08 00:28:08;;;;;;;2.83;0.93;;;16.70;88.10;;;;;;5112286;28;20518;-76
2021/08/08 00:30:35;;;;;;;2.53;0.60;;;16.70;88.50;;;;;;5115592;27;20112;-77
2021/08/08 00:33:02;;;;;;;1.70;0.82;;;16.70;88.60;;;;;;5116028;28;20032;-77
2021/08/08 00:35:34;;;;;;;;;;;16.70;88.60;;;;;;5112861;27;20070;-77
2021/08/08 00:38:02;;;;;;;2.10;0.75;;;16.70;88.90;;;;;;5081242;28;19920;-77
2021/08/08 00:40:31;;;;;;;1.45;0.82;;;16.70;88.80;;;;;;5095075;28;20048;-77
2021/08/08 00:42:58;;;;;;;1.45;0.60;;;16.70;88.90;;;;;;5097874;28;20501;-77
2021/08/08 00:45:26;;;;;;;2.00;0.70;;;16.70;89.00;;;;;;5090818;28;20040;-77
2021/08/08 00:48:04;;;;;;;3.35;1.00;;;16.70;89.10;;;;;;5087609;28;20395;-78
2021/08/08 00:50:38;;;;;;;3.80;1.10;;;16.70;89.40;;;;;;5098887;28;20089;-77
2021/08/08 00:53:08;;;;;;;3.35;0.95;;;16.70;89.50;;;;;;5110227;27;20096;-77
2021/08/08 00:55:38;;;;;;;2.85;1.23;;;16.70;89.70;;;;;;5090071;28;20504;-78
2021/08/08 00:58:06;;;;;;;2.92;1.48;;;16.70;89.90;;;;;;5114345;27;20047;-77
2021/08/08 01:00:38;;;;;;;6.85;1.40;;;16.60;90.30;;;;;;5116588;27;20040;-78
2021/08/08 01:03:09;;;;;;;4.93;1.60;;;16.60;90.10;;;;;;5098309;27;20043;-79
2021/08/08 01:05:54;;;;;;;3.40;1.33;;;16.60;90.10;;;;;;5103793;28;20075;-79
2021/08/08 01:08:30;;;;;;;1.88;1.10;;;16.50;90.20;;;;;;5094193;28;20545;-78
2021/08/08 01:11:00;;;;;;;2.95;1.45;;;16.50;90.30;;;;;;5113962;28;20062;-78
2021/08/08 01:13:32;;;;;;;2.25;1.10;;;16.50;90.40;;;;;;5081088;28;20455;-78
2021/08/08 01:15:59;;;;;;;4.20;1.95;;;16.50;90.40;;;;;;5103528;28;20372;-78
2021/08/08 01:18:29;;;;;;;4.03;2.08;;;16.50;90.50;;;;;;5097024;28;20558;-78
2021/08/08 01:20:58;;;;;;;6.13;2.45;;;16.50;90.60;;;;;;5103111;28;20051;-77
2021/08/08 01:23:31;;;;;;;5.95;2.47;;;16.40;90.80;;;;;;5086093;28;20036;-78
2021/08/08 01:25:58;;;;;;;;;;;16.40;90.80;;;;;;5110185;28;20040;-79
2021/08/08 01:28:26;;;;;;;3.47;1.52;;;16.40;90.90;;;;;;5124632;27;19959;-78
2021/08/08 01:30:53;;;;;;;4.05;1.70;;;16.40;90.80;;;;;;5095965;28;20044;-78
2021/08/08 01:33:22;;;;;;;4.18;2.00;;;16.40;90.80;;;;;;5114098;28;20407;-78
2021/08/08 01:35:58;;;;;;;3.58;1.90;;;16.40;90.80;;;;;;5097219;28;20063;-78
2021/08/08 01:38:30;;;;;;;4.20;1.75;;;16.40;90.80;;;;;;5071953;28;20090;-78
2021/08/08 01:41:03;;;;;;;5.55;1.50;;;16.50;90.90;;;;;;5107339;28;20092;-78
2021/08/08 01:43:56;;;;;;;3.28;1.60;;;16.50;90.90;;;;;;5105826;28;20079;-78
2021/08/08 01:46:25;;;;;;;3.33;1.55;;;16.50;91.00;;;;;;5108988;28;20040;-78
2021/08/08 01:49:05;;;;;;;3.03;1.48;;;16.50;91.00;;;;;;5106308;28;20606;-78
2021/08/08 01:51:33;;;;;;;3.97;2.10;;;16.50;91.00;;;;;;5079117;28;20077;-78
2021/08/08 01:54:00;;;;;;;3.30;1.67;;;16.50;91.00;;;;;;5075520;28;20136;-78
2021/08/08 01:56:29;;;;;;;3.67;1.90;;;16.50;91.10;;;;;;5113272;27;20050;-78
2021/08/08 01:58:56;;;;;;;3.95;2.33;;;16.50;91.10;;;;;;5078074;28;20059;-78
2021/08/08 02:01:29;;;;;;;6.00;1.70;;;16.50;91.10;;;;;;5093782;28;20044;-79
2021/08/08 02:04:20;;;;;;;5.20;2.00;;;16.50;91.10;;;;;;5095398;28;20035;-79
2021/08/08 02:06:55;;;;;;;4.80;2.20;;;16.50;91.20;;;;;;5117493;27;20035;-79
2021/08/08 02:09:23;;;;;;;4.45;2.72;;;16.40;91.20;;;;;;5100489;28;20070;-79
2021/08/08 02:11:50;;;;;;;3.83;2.75;;;16.40;91.20;;;;;;5080579;27;20099;-79
2021/08/08 02:14:19;;;;;;;6.70;3.30;;;16.40;91.30;;;;;;5118446;27;20071;-79
2021/08/08 02:16:49;;;;;;;5.25;2.58;;;16.40;91.40;;;;;;5081917;27;20051;-79
2021/08/08 02:19:19;;;;;;;5.75;2.08;;;16.40;91.50;;;;;;5089515;27;20071;-79
2021/08/08 02:21:52;;;;;;;3.63;1.92;;;16.40;91.70;;;;;;5102261;27;20039;-79
2021/08/08 02:24:23;;;;;;;5.88;2.10;;;16.30;91.50;;;;;;5096896;28;20036;-80
2021/08/08 02:26:59;;;;;;;4.00;2.67;;;16.30;91.50;;;;;;5111497;28;20035;-79
2021/08/08 02:29:27;;;;;;;7.90;2.28;;;16.30;91.60;;;;;;5116852;27;20575;-79
2021/08/08 02:31:54;;;;;;;4.07;1.98;;;16.30;91.60;;;;;;5096037;28;20049;-79
2021/08/08 02:34:31;;;;;;;2.33;1.45;;;16.30;91.60;;;;;;5095116;28;20085;-79
2021/08/08 02:36:59;;;;;;;5.30;2.30;;;16.40;91.60;;;;;;5071586;28;20043;-80
2021/08/08 02:39:26;;;;;;;6.18;2.42;;;16.40;91.70;;;;;;5111383;28;20046;-79
2021/08/08 02:41:53;;;;;;;4.53;1.77;;;16.40;91.70;;;;;;5111832;28;20048;-79
2021/08/08 02:44:21;;;;;;;7.03;2.33;;;16.40;91.70;;;;;;5090037;28;20043;-79
2021/08/08 02:46:51;;;;;;;4.20;2.30;;;16.40;91.70;;;;;;5094556;28;20044;-79
2021/08/08 02:49:19;;;;;;;4.22;2.00;;;16.40;91.70;;;;;;5095594;28;20036;-79
2021/08/08 02:51:47;;;;;;;5.82;3.05;;;16.30;91.70;;;;;;5105844;28;20048;-78
2021/08/08 02:54:17;;;;;;;4.53;2.13;;;16.30;91.80;;;;;;5074518;28;20071;-79
2021/08/08 02:56:48;;;;;;;7.28;3.08;;;16.30;91.80;;;;;;5067545;28;20036;-79
2021/08/08 02:59:17;;;;;;;6.40;2.50;;;16.30;92.10;;;;;;5062018;28;20043;-78
2021/08/08 03:01:47;;;;;;;7.20;3.13;;;16.30;91.90;;;;;;5111298;28;20083;-78
2021/08/08 03:04:15;;;;;;;4.70;2.60;;;16.20;91.90;;;;;;5076189;28;20048;-78
2021/08/08 03:06:45;;;;;;;5.85;3.08;;;16.20;91.90;;;;;;5095150;28;20093;-78
2021/08/08 03:09:14;;;;;;;4.22;2.53;;;16.20;92.00;;;;;;5113322;28;20118;-78
2021/08/08 03:11:45;;;;;;;6.70;2.58;;;16.20;92.00;;;;;;5095430;28;20100;-78
2021/08/08 03:14:17;;;;;;;7.55;3.40;;;16.10;92.00;;;;;;5095813;28;20063;-78
2021/08/08 03:16:46;;;;;;;7.80;3.47;;;16.10;92.10;;;;;;5111745;28;20491;-78
2021/08/08 03:19:15;;;;;;;8.98;2.80;;;16.10;92.10;;;;;;5095356;28;20088;-78
2021/08/08 03:21:44;;;;;;;7.10;2.35;;;16.10;92.10;;;;;;5111728;28;20518;-78
2021/08/08 03:24:11;;;;;;;4.82;1.83;;;16.10;92.10;;;;;;5095019;28;20100;-78
2021/08/08 03:26:40;;;;;;;5.72;2.15;;;16.10;92.30;;;;;;5111863;28;20035;-78
2021/08/08 03:29:10;;;;;;;3.75;1.95;;;16.20;92.10;;;;;;5108298;28;20048;-79
2021/08/08 03:31:39;;;;;;;5.10;2.30;;;16.20;92.10;;;;;;5102517;28;20051;-78
2021/08/08 03:34:06;;;;;;;3.90;2.05;;;16.20;92.10;;;;;;5077931;28;20039;-78
2021/08/08 03:36:33;;;;;;;3.10;1.63;;;16.20;92.10;;;;;;5117772;27;20040;-78
2021/08/08 03:39:01;;;;;;;3.47;1.83;;;16.20;92.10;;;;;;5110921;28;20054;-79
2021/08/08 03:41:30;;;;;;;3.08;1.50;;;16.20;92.10;;;;;;5094632;28;20031;-77
2021/08/08 03:43:57;;;;;;;10.40;1.90;;;16.20;92.10;;;;;;5094779;28;20036;-77
2021/08/08 03:46:27;;;;;;;5.90;1.80;;;16.30;92.10;;;;;;5064534;28;20040;-77
2021/08/08 03:48:55;;;;;;;3.78;2.00;;;16.30;92.10;;;;;;5081787;28;20847;-77
2021/08/08 03:51:23;;;;;;;2.97;1.23;;;16.20;92.10;;;;;;5094407;28;20035;-77
2021/08/08 03:53:51;;;;;;;3.92;1.38;;;16.30;92.10;;;;;;5091438;28;20038;-77
2021/08/08 03:56:18;;;;;;;3.90;1.83;;;16.30;92.10;;;;;;5094236;28;20039;-77
2021/08/08 03:58:45;;;;;;;7.70;1.85;;;16.30;92.10;;;;;;5100681;28;20122;-77
2021/08/08 04:01:16;;;;;;;7.10;1.77;;;16.30;92.10;;;;;;5114692;28;20445;-77
2021/08/08 04:03:43;;;;;;;5.28;1.88;;;16.20;92.10;;;;;;5115893;28;20109;-77
2021/08/08 04:06:10;;;;;;;4.82;1.92;;;16.20;92.10;;;;;;5108422;28;20044;-77
2021/08/08 04:08:37;;;;;;;6.40;2.25;;;16.20;92.10;;;;;;5097854;28;20078;-77
2021/08/08 04:11:09;;;;;;;7.72;2.33;;;16.20;92.20;;;;;;5109657;28;20042;-77
2021/08/08 04:13:37;;;;;;;5.15;2.17;;;16.20;92.20;;;;;;5090033;28;20040;-77
2021/08/08 04:16:07;;;;;;;5.93;2.40;;;16.10;92.20;;;;;;5115149;28;20039;-77
2021/08/08 04:18:34;;;;;;;9.48;2.10;;;16.10;92.20;;;;;;5113826;27;20396;-77
2021/08/08 04:21:03;;;;;;;4.72;1.52;;;16.10;92.20;;;;;;5083980;27;20054;-77
2021/08/08 04:23:30;;;;;;;2.83;1.42;;;16.10;92.20;;;;;;5117524;27;20040;-77
2021/08/08 04:25:57;;;;;;;4.10;1.50;;;16.10;92.20;;;;;;5121984;27;20096;-77
2021/08/08 04:28:24;;;;;;;5.45;1.33;;;16.20;92.30;;;;;;5122267;27;20064;-77
2021/08/08 04:30:51;;;;;;;7.72;1.75;;;16.20;92.20;;;;;;5126383;27;20068;-77
2021/08/08 04:33:18;;;;;;;6.25;2.10;;;16.10;92.20;;;;;;5113718;27;20047;-77
2021/08/08 04:35:46;;;;;;;4.95;1.50;;;16.10;92.20;;;;;;5077449;28;20052;-77
2021/08/08 04:38:14;;;;;;;5.18;2.00;;;16.10;92.20;;;;;;5100488;28;20040;-77
2021/08/08 04:40:42;;;;;;;6.38;2.28;;;16.10;92.20;;;;;;5112873;28;20142;-77
2021/08/08 04:43:09;;;;;;;4.53;1.83;;;16.10;92.20;;;;;;5120610;27;20043;-76
2021/08/08 04:45:37;;;;;;;7.38;1.85;;;16.10;92.20;;;;;;5115063;28;20527;-76
2021/08/08 04:48:06;;;;;;;5.00;1.95;;;16.10;92.20;;;;;;5117042;27;20040;-77
2021/08/08 04:50:37;;;;;;;3.47;1.60;;;16.10;92.20;;;;;;5097576;28;20044;-77
2021/08/08 04:53:11;;;;;;;4.80;1.55;;;16.10;92.20;;;;;;5097593;28;20036;-77
2021/08/08 04:55:38;;;;;;;5.30;1.63;;;16.10;92.20;;;;;;5114339;27;20036;-78
2021/08/08 04:58:05;;;;;;;4.28;1.40;;;16.10;92.20;;;;;;5080587;28;20039;-78
2021/08/08 05:00:32;;;;;;;6.32;1.80;;;16.10;92.20;;;;;;5094073;28;20051;-78
2021/08/08 05:03:01;;;;;;;4.22;1.92;;;16.20;92.20;;;;;;5097934;27;20054;-78
2021/08/08 05:05:32;;;;;;;6.50;2.33;;;16.20;92.10;;;;;;5114952;28;20043;-78
2021/08/08 05:08:01;;;;;;;4.00;1.63;;;16.20;92.20;;;;;;5109721;28;20054;-78
2021/08/08 05:10:30;;;;;;;4.05;2.05;;;16.20;92.10;;;;;;5100689;27;20041;-78
2021/08/08 05:12:58;;;;;;;10.02;2.85;;;16.20;92.10;;;;;;5094616;28;20047;-78
2021/08/08 05:15:25;;;;;;;6.63;2.47;;;16.20;92.00;;;;;;5082125;28;21133;-78
2021/08/08 05:17:55;;;;;;;10.07;2.83;;;16.30;92.10;;;;;;5112779;28;20043;-77
2021/08/08 05:20:22;;;;;;;5.88;2.58;;;16.30;92.00;;;;;;5092056;28;20052;-78
2021/08/08 05:22:52;;;;;;;5.50;2.28;;;16.30;92.00;;;;;;5062555;28;20032;-77
2021/08/08 05:25:19;;;;;;;7.35;2.28;;;16.40;92.00;;;;;;5112239;28;20039;-77
2021/08/08 05:27:46;;;;;;;5.35;2.15;;;16.40;92.20;;;;;;5096012;28;20058;-77
2021/08/08 05:30:18;;;;;;;9.10;2.45;;;16.50;92.20;;;;;;5111438;28;20495;-77
2021/08/08 05:32:53;;;;;;;11.48;2.58;;;16.50;91.90;;;;;;5098273;28;20155;-77
2021/08/08 05:35:20;;;;;;;8.85;2.40;;;16.50;91.80;;;;;;5104734;28;20047;-77
2021/08/08 05:37:49;;;;;;;7.05;2.45;;;16.40;91.80;;;;;;5098815;28;20039;-77
2021/08/08 05:40:21;;;;;;;5.80;2.08;;;16.50;91.80;;;;;;5112857;28;20503;-77
2021/08/08 05:42:52;;;;;;;7.03;2.25;;;16.50;91.80;;;;;;5095185;28;20130;-77
2021/08/08 05:45:20;;;;;;;5.88;2.13;;;16.50;91.80;;;;;;5112589;28;20426;-78
2021/08/08 05:47:48;;;;;;;5.18;1.67;;;16.50;91.80;;;;;;5104800;28;20528;-77
2021/08/08 05:50:19;;;;;;;5.30;1.98;;;16.60;91.80;;;;;;5110104;28;20073;-77
2021/08/08 05:52:50;;;;;;;6.10;1.83;;;16.50;91.70;;;;;;5097184;28;20047;-77
2021/08/08 05:55:18;;;;;;;7.15;2.10;;;16.60;91.70;;;;;;5115324;28;20503;-78
2021/08/08 05:57:46;;;;;;;4.95;1.75;;;16.60;91.70;;;;;;5111929;28;20047;-77
2021/08/08 06:00:15;;;;;;;4.28;1.30;;;16.70;91.70;;;;;;5095196;28;20143;-78
2021/08/08 06:02:44;;;;;;;9.35;2.55;;;16.80;91.60;;;;;;5112428;28;20047;-77
2021/08/08 06:05:15;;;;;;;8.73;2.28;;;16.80;91.50;;;;;;5112200;28;20146;-77
2021/08/08 06:07:42;;;;;;;5.88;2.35;;;16.80;91.50;;;;;;5063198;28;20040;-77
2021/08/08 06:10:09;;;;;;;7.72;2.15;;;16.80;91.50;;;;;;5095649;28;20042;-77
2021/08/08 06:12:39;;;;;;;5.90;1.80;;;16.80;91.50;;;;;;5070588;27;1150536;-77
2021/08/08 06:15:07;;;;;;;6.82;2.22;;;16.80;91.50;;;;;;5120406;27;20044;-77
2021/08/08 06:17:37;;;;;;;5.47;2.05;;;16.80;91.40;;;;;;5115712;27;20040;-77
2021/08/08 06:20:11;;;;;;;7.90;2.10;;;16.80;91.40;;;;;;5085464;28;20081;-77
2021/08/08 06:22:49;;;;;;;6.55;2.58;;;16.80;91.40;;;;;;5097597;28;20479;-77
2021/08/08 06:25:19;;;;;;;11.35;2.33;;;16.90;91.30;;;;;;5097340;28;20047;-77
2021/08/08 06:27:46;;;;;;;6.57;1.90;;;17.10;91.30;;;;;;5111974;28;20042;-77
2021/08/08 06:30:14;;;;;;;4.78;2.00;;;17.30;91.20;;;;;;5112660;28;20035;-77
2021/08/08 06:32:41;;;;;;;4.72;1.90;;;17.30;91.00;;;;;;5080798;28;20155;-78
2021/08/08 06:35:09;;;;;;;6.90;2.33;;;17.40;91.00;;;;;;5075284;28;20067;-77
2021/08/08 06:37:44;;;;;;;7.15;2.35;;;17.50;90.80;;;;;;5094753;28;20128;-77
2021/08/08 06:40:15;;;;;;;10.50;2.70;;;17.50;90.70;;;;;;5097394;28;20493;-77
2021/08/08 06:42:43;;;;;;;8.27;2.83;;;17.40;90.70;;;;;;5079995;28;20392;-77
2021/08/08 06:45:13;;;;;;;3.55;1.45;;;17.30;90.80;;;;;;5112195;28;20062;-77
2021/08/08 06:47:40;;;;;;;5.75;1.85;;;17.30;90.80;;;;;;5099573;28;20040;-77
2021/08/08 06:50:08;;;;;;;5.20;1.42;;;17.40;90.90;;;;;;5078574;28;20093;-77
2021/08/08 06:52:35;;;;;;;3.28;1.67;;;17.40;90.90;;;;;;5111988;28;20388;-77
2021/08/08 06:55:03;;;;;;;6.18;1.70;;;17.40;90.80;;;;;;5095459;28;20085;-78
2021/08/08 06:57:30;;;;;;;4.85;2.13;;;17.40;90.80;;;;;;5109837;28;20070;-78
2021/08/08 07:00:07;;;;;;;6.50;2.35;;;17.40;90.70;;;;;;5114837;27;20088;-77
2021/08/08 07:02:34;;;;;;;5.25;2.28;;;17.40;90.60;;;;;;5095009;28;20043;-77
2021/08/08 07:05:02;;;;;;;5.07;1.70;;;17.40;90.60;;;;;;5091821;28;20093;-77
2021/08/08 07:07:29;;;;;;;5.20;2.15;;;17.40;90.60;;;;;;5082351;28;20043;-77
2021/08/08 07:09:56;;;;;;;8.63;2.03;;;17.50;90.60;;;;;;5080493;27;20051;-77
2021/08/08 07:12:23;;;;;;;7.75;2.80;;;17.50;90.60;;;;;;5112497;27;20050;-77
2021/08/08 07:14:52;;;;;;;8.30;2.63;;;17.50;90.30;;;;;;5113263;27;20490;-77
2021/08/08 07:17:20;;;;;;;4.80;2.60;;;17.60;90.10;;;;;;5084383;28;20502;-77
2021/08/08 07:19:47;;;;;;;7.18;2.08;;;17.70;90.20;;;;;;5091267;28;20441;-78
2021/08/08 07:22:15;;;;;;;10.18;3.10;;;17.80;90.10;;;;;;5098453;27;20058;-77
2021/08/08 07:24:45;;;;;;;6.70;2.45;;;17.80;89.50;;;;;;5108989;28;20040;-77
2021/08/08 07:27:12;;;;;;;8.13;2.95;;;17.70;89.40;;;;;;5091982;28;20034;-77
2021/08/08 07:29:39;;;;;;;6.28;2.65;;;17.80;89.80;;;;;;5110390;28;20043;-77
2021/08/08 07:32:08;;;;;;;6.55;3.28;;;17.90;89.80;;;;;;5111166;28;20041;-78
2021/08/08 07:34:36;;;;;;;8.73;2.50;;;18.10;88.50;;;;;;5109079;28;20039;-78
2021/08/08 07:37:03;;;;;;;6.05;2.45;;;18.10;88.50;;;;;;5092906;28;20043;-77
2021/08/08 07:39:34;;;;;;;5.90;2.40;;;18.10;88.50;;;;;;5104455;28;21099;-77
2021/08/08 07:42:01;;;;;;;7.05;2.28;;;18.20;88.70;;;;;;5081416;28;20031;-78
2021/08/08 07:44:28;;;;;;;6.53;2.60;;;18.30;88.70;;;;;;5106696;28;20032;-79
2021/08/08 07:46:58;;;;;;;6.70;2.85;;;18.30;88.10;;;;;;5111232;28;20039;-78
2021/08/08 07:49:28;;;;;;;8.13;3.55;;;18.40;87.80;;;;;;5089044;28;20872;-77
2021/08/08 07:51:55;;;;;;;6.53;2.90;;;18.40;87.30;;;;;;5089314;28;20060;-78
2021/08/08 07:54:22;;;;;;;8.27;2.70;;;18.50;87.90;;;;;;5091332;28;20077;-78
2021/08/08 07:56:49;;;;;;;7.90;2.85;;;18.40;87.00;;;;;;5107293;28;20399;-77
2021/08/08 07:59:17;;;;;;;4.55;1.92;;;18.40;87.30;;;;;;5103216;28;20036;-77
2021/08/08 08:01:44;;;;;;;6.65;2.10;;;18.40;87.40;;;;;;5076231;28;20058;-77
2021/08/08 08:04:12;;;;;;;4.65;2.10;;;18.50;87.30;;;;;;5074503;28;20491;-79
2021/08/08 08:06:43;;;;;;;8.43;2.72;;;18.40;87.20;;;;;;5074798;28;20060;-79
2021/08/08 08:09:11;;;;;;;4.85;2.15;;;18.30;86.80;;;;;;5089403;28;20040;-78
2021/08/08 08:11:42;;;;;;;7.43;2.83;;;18.20;86.40;;;;;;5104574;28;20136;-78
2021/08/08 08:14:10;;;;;;;6.03;2.63;;;18.20;86.10;;;;;;5071269;28;20073;-78
2021/08/08 08:16:37;;;;;;;6.43;2.00;;;18.20;86.60;;;;;;5108437;28;20054;-78
2021/08/08 08:19:04;;;;;;;10.18;2.15;;;18.30;86.90;;;;;;5088393;28;20040;-78
2021/08/08 08:21:32;;;;;;;7.90;2.25;;;18.30;86.30;;;;;;5104044;28;20424;-79
2021/08/08 08:23:59;;;;;;;6.90;2.50;;;18.30;86.00;;;;;;5086454;28;20039;-79
2021/08/08 08:26:34;;;;;;;7.63;2.55;;;18.30;85.20;;;;;;5107713;28;20039;-79
2021/08/08 08:29:20;;;;;;;8.77;2.65;;;18.20;85.20;;;;;;5088037;28;20059;-84
2021/08/08 08:31:48;;;;;;;8.27;2.70;;;18.20;85.00;;;;;;5109905;28;20133;-84
2021/08/08 08:34:18;;;;;;;10.05;3.25;;;18.20;85.30;;;;;;5074088;28;20035;-84
2021/08/08 08:36:45;;;;;;;6.45;1.98;;;18.30;85.40;;;;;;5099189;28;20068;-82
2021/08/08 08:39:12;;;;;;;5.05;2.08;;;18.40;85.00;;;;;;5093113;28;20036;-82
2021/08/08 08:41:40;;;;;;;5.60;1.92;;;18.40;85.20;;;;;;5092796;28;20044;-82
2021/08/08 08:44:08;;;;;;;5.70;2.42;;;18.40;84.80;;;;;;5093991;28;20036;-82
2021/08/08 08:46:40;;;;;;;7.68;2.55;;;18.50;84.80;;;;;;5094782;28;20064;-82
2021/08/08 08:49:09;;;;;;;6.80;2.33;;;18.60;84.60;;;;;;5107263;27;20047;-82
2021/08/08 08:51:42;;;;;;;4.97;1.90;;;18.70;84.30;;;;;;5101178;28;20059;-83
2021/08/08 08:54:11;;;;;;;6.00;2.10;;;18.70;84.20;;;;;;5090760;28;20056;-78
2021/08/08 08:56:53;;;;;;;6.18;2.13;;;18.80;84.40;;;;;;5112983;28;20462;-84
2021/08/08 08:59:20;;;;;;;6.95;2.55;;;18.90;84.20;;;;;;5087943;28;20075;-82
2021/08/08 09:01:48;;;;;;;5.57;1.60;;;18.90;84.00;;;;;;5088516;28;20456;-84
2021/08/08 09:04:15;;;;;;;3.25;1.77;;;19.00;84.40;;;;;;5104862;28;20043;-84
2021/08/08 09:06:45;;;;;;;4.03;1.80;;;19.00;84.30;;;;;;5055440;28;20501;-81
2021/08/08 09:09:15;;;;;;;5.65;1.55;;;19.10;84.20;;;;;;5088485;28;20036;-82
2021/08/08 09:11:45;;;;;;;5.05;1.83;;;19.20;84.40;;;;;;5094826;28;20067;-81
2021/08/08 09:14:17;;;;;;;5.57;2.13;;;19.30;84.20;;;;;;5112695;27;20039;-81
2021/08/08 09:16:50;;;;;;;4.22;1.75;;;19.40;83.70;;;;;;5090234;28;20068;-81
2021/08/08 09:19:27;;;;;;;2.55;1.70;;;19.50;83.70;;;;;;5107282;27;20039;-81
2021/08/08 09:22:00;;;;;;;5.65;1.75;;;19.60;83.30;;;;;;5078455;28;20055;-79
2021/08/08 09:24:33;;;;;;;3.28;2.10;;;19.70;82.80;;;;;;5087802;28;20040;-79
2021/08/08 09:27:07;;;;;;;3.33;1.52;;;19.90;82.50;;;;;;5090410;28;20438;-78
2021/08/08 09:29:46;;;;;;;5.60;1.65;;;20.00;82.20;;;;;;5110255;28;20445;-77
2021/08/08 09:32:14;;;;;;;5.78;2.25;;;20.10;81.60;;;;;;5093800;28;20119;-77
2021/08/08 09:34:45;;;;;;;4.40;1.63;;;20.10;81.70;;;;;;5112378;28;20050;-77
2021/08/08 09:37:22;;;;;;;6.68;2.15;;;20.30;82.50;;;;;;5114795;27;20392;-76
2021/08/08 09:39:51;;;;;;;4.32;1.73;;;20.40;81.50;;;;;;5110550;28;20036;-75
2021/08/08 09:42:28;;;;;;;4.40;1.77;;;20.40;81.40;;;;;;5072616;28;20036;-78
2021/08/08 09:45:06;;;;;;;6.65;1.95;;;20.30;81.70;;;;;;5119105;27;20051;-77
2021/08/08 09:47:41;;;;;;;4.55;1.52;;;20.30;81.60;;;;;;5105029;27;20058;-76
2021/08/08 09:50:19;;;;;;;3.05;1.42;;;20.30;81.80;;;;;;5109528;28;20039;-80
2021/08/08 09:52:58;;;;;;;2.50;1.33;;;20.20;81.90;;;;;;5108481;27;20051;-80
2021/08/08 09:55:37;;;;;;;3.05;1.30;;;20.20;83.00;;;;;;5093093;28;20453;-80
2021/08/08 09:58:15;;;;;;;4.35;1.60;;;20.10;82.60;;;;;;5101319;28;20498;-80
2021/08/08 10:00:43;;;;;;;4.35;1.65;;;20.20;82.10;;;;;;5109256;28;20044;-80
2021/08/08 10:03:12;;;;;;;4.18;1.48;;;20.20;81.20;;;;;;5105103;28;20036;-80
2021/08/08 10:05:42;;;;;;;4.47;2.00;;;20.30;80.50;;;;;;5107100;28;20105;-80
2021/08/08 10:08:13;;;;;;;4.78;1.75;;;20.40;80.20;;;;;;5114487;27;20040;-79
2021/08/08 10:10:45;;;;;;;3.83;1.77;;;20.40;80.70;;;;;;5110567;28;21328;-79
2021/08/08 10:13:28;;;;;;;4.53;1.48;;;20.50;80.90;;;;;;5110159;28;20495;-79
2021/08/08 10:15:56;;;;;;;;;;;20.70;80.10;;;;;;5102037;27;20052;-79
2021/08/08 10:18:28;;;;;;;5.00;1.88;;;20.80;80.30;;;;;;5108280;27;19920;-79
2021/08/08 10:20:55;;;;;;;4.50;1.83;;;20.80;79.50;;;;;;5111043;27;20102;-78
2021/08/08 10:23:23;;;;;;;3.78;1.67;;;20.90;79.10;;;;;;5111256;27;20070;-78
2021/08/08 10:25:51;;;;;;;5.60;1.65;;;21.00;80.00;;;;;;5110702;28;20060;-78
2021/08/08 10:28:20;;;;;;;4.35;1.40;;;21.10;79.60;;;;;;5091805;28;20457;-76
2021/08/08 10:30:47;;;;;;;2.63;1.00;;;21.10;78.80;;;;;;5111235;28;20035;-76
2021/08/08 10:33:14;;;;;;;3.60;1.52;;;21.00;78.80;;;;;;5113116;28;20042;-79
2021/08/08 10:35:44;;;;;;;4.78;1.63;;;21.00;79.20;;;;;;5113024;28;20114;-78
2021/08/08 10:38:15;;;;;;;4.95;1.42;;;21.10;79.10;;;;;;5101436;27;20039;-79
2021/08/08 10:40:44;;;;;;;2.33;1.30;;;21.20;79.10;;;;;;5097236;28;20044;-80
2021/08/08 10:43:28;;;;;;;6.43;1.48;;;21.10;78.70;;;;;;5081971;27;20113;-80
2021/08/08 10:46:06;;;;;;;6.68;1.88;;;21.20;77.80;;;;;;5095852;28;20104;-81
2021/08/08 10:48:40;;;;;;;3.22;1.40;;;21.20;78.00;;;;;;5109261;28;20059;-79
2021/08/08 10:51:24;;;;;;;5.07;1.83;;;21.20;77.00;;;;;;5120562;27;20100;-80
2021/08/08 10:54:03;;;;;;;2.70;1.40;;;21.10;76.70;;;;;;5091338;28;20050;-85
2021/08/08 10:57:08;;;;;;;7.28;2.33;;;21.00;76.60;;;;;;5113436;27;20054;-80
2021/08/08 10:59:45;;;;;;;5.03;1.80;;;21.00;76.90;;;;;;5092332;28;20071;-83
2021/08/08 11:02:14;;;;;;;4.20;1.95;;;21.00;77.50;;;;;;5108716;27;20039;-81
2021/08/08 11:04:42;;;;;;;4.10;1.70;;;21.20;77.80;;;;;;5112147;28;20410;-82
2021/08/08 11:07:10;;;;;;;5.90;2.03;;;21.20;76.60;;;;;;5094685;28;20437;-85
2021/08/08 11:09:38;;;;;;;5.05;1.65;;;21.20;75.90;;;;;;5098602;28;20411;-81
2021/08/08 11:12:06;;;;;;;6.13;1.50;;;21.30;76.40;;;;;;5094390;28;20054;-81
2021/08/08 11:14:33;;;;;;;5.88;1.63;;;21.30;76.40;;;;;;5092043;28;20058;-81
2021/08/08 11:17:06;;;;;;;2.08;1.30;;;21.50;76.40;;;;;;5099558;27;20051;-81
2021/08/08 11:19:40;;;;;;;;;;;21.50;76.50;;;;;;5095751;28;20047;-83
2021/08/08 11:22:09;;;;;;;4.80;1.65;;;21.50;77.00;;;;;;5119766;27;20328;-83
2021/08/08 11:24:38;;;;;;;3.92;1.42;;;21.60;75.90;;;;;;5094376;28;20126;-81
2021/08/08 11:27:07;;;;;;;3.83;1.40;;;21.90;75.60;;;;;;5093161;28;20048;-80
2021/08/08 11:29:34;;;;;;;4.65;1.70;;;22.10;74.00;;;;;;5109317;28;20089;-77
2021/08/08 11:32:06;;;;;;;3.35;1.40;;;22.10;73.90;;;;;;5110691;27;20050;-77
2021/08/08 11:34:33;;;;;;;2.40;1.08;;;22.00;74.40;;;;;;5109700;28;20051;-82
2021/08/08 11:37:00;;;;;;;4.47;1.00;;;22.10;74.90;;;;;;5094332;28;20047;-81
2021/08/08 11:39:35;;;;;;;3.88;1.42;;;22.20;74.00;;;;;;5107462;28;20064;-79
2021/08/08 11:42:11;;;;;;;3.47;0.93;;;22.30;73.70;;;;;;5111425;27;20051;-77
2021/08/08 11:44:41;;;;;;;4.45;1.30;;;22.30;73.50;;;;;;5113065;28;20036;-78
2021/08/08 11:47:10;;;;;;;2.33;1.00;;;22.30;73.80;;;;;;5097884;28;20043;-76
2021/08/08 11:49:47;;;;;;;3.63;1.20;;;22.40;74.10;;;;;;5111477;28;20046;-76
2021/08/08 11:52:18;;;;;;;5.20;0.90;;;22.50;74.10;;;;;;5110671;28;20086;-76
2021/08/08 11:55:12;;;;;;;3.35;0.98;;;23.00;73.90;;;;;;5080205;28;20055;-83
2021/08/08 12:01:16;;;;;;;3.25;0.90;;;23.20;70.70;;;;;;5107521;28;20487;-93
2021/08/08 12:03:44;;;;;;;1.85;0.65;;;23.30;71.40;;;;;;5090020;28;20440;-85
2021/08/08 12:06:12;;;;;;;2.30;0.70;;;23.50;70.80;;;;;;5103588;28;20094;-92
2021/08/08 12:08:40;;;;;;;5.05;0.90;;;23.70;69.80;;;;;;5093810;28;20082;-80
2021/08/08 12:11:07;;;;;;;6.10;1.05;;;23.70;68.90;;;;;;5105435;28;20507;-87
2021/08/08 12:13:34;;;;;;;2.70;1.10;;;24.00;67.00;;;;;;5074619;28;20074;-84
2021/08/08 12:16:14;;;;;;;2.88;0.80;;;24.00;67.90;;;;;;5097242;28;20495;-80
2021/08/08 12:18:42;;;;;;;3.05;0.68;;;23.70;68.20;;;;;;5093397;28;20050;-82
2021/08/08 12:21:17;;;;;;;2.08;0.60;;;23.50;69.40;;;;;;5091739;28;20032;-86
2021/08/08 12:23:44;;;;;;;3.70;0.60;;;23.60;69.80;;;;;;5097370;28;20137;-82
2021/08/08 12:26:11;;;;;;;2.92;0.50;;;23.60;70.00;;;;;;5117717;27;20403;-90
2021/08/08 12:28:38;;;;;;;3.20;1.00;;;23.80;69.60;;;;;;5096959;28;20488;-92
2021/08/08 12:31:09;;;;;;;4.47;0.90;;;23.90;69.40;;;;;;5102591;28;20063;-88
2021/08/08 12:33:37;;;;;;;1.83;0.70;;;23.70;68.90;;;;;;5101601;28;20087;-91
2021/08/08 12:36:17;;;;;;;5.38;1.17;;;23.20;68.20;;;;;;5094697;28;20060;-95
2021/08/08 12:38:52;;;;;;;3.13;0.80;;;22.90;69.00;;;;;;5098827;28;20043;-96
2021/08/08 12:41:30;;;;;;;5.43;1.05;;;22.60;68.50;;;;;;5114580;27;20059;-84
2021/08/08 12:43:59;;;;;;;3.95;1.27;;;22.20;68.80;;;;;;5090081;28;20527;-88
2021/08/08 12:46:39;;;;;;;1.92;0.60;;;21.80;69.70;;;;;;5108793;27;20039;-85
2021/08/08 12:49:09;;;;;;;1.85;0.52;;;21.60;70.40;;;;;;5105828;27;20415;-85
2021/08/08 12:51:38;;;;;;;2.78;0.73;;;21.90;70.10;;;;;;5116712;27;20042;-83
2021/08/08 12:54:07;;;;;;;2.33;0.60;;;22.30;68.90;;;;;;5110564;28;20055;-79
2021/08/08 12:56:35;;;;;;;1.45;0.75;;;22.60;68.80;;;;;;5089184;28;20371;-76
2021/08/08 12:59:02;;;;;;;1.35;0.40;;;22.70;67.90;;;;;;5112594;28;20050;-75
2021/08/08 13:01:30;;;;;;;0.90;0.30;;;22.80;67.30;;;;;;5111415;28;20559;-74
2021/08/08 13:03:57;;;;;;;1.67;0.40;;;22.70;67.60;;;;;;5111385;27;20042;-75
2021/08/08 13:06:25;;;;;;;1.63;0.40;;;22.40;67.90;;;;;;5109804;28;20036;-76